createdAt,value
2023-04-05T00:02:02.244Z,101971.06
2023-04-05T00:04:34.856Z,101998.47
2023-04-05T00:07:08.337Z,101993.22
2023-04-05T00:09:37.928Z,102016.44
2023-04-05T00:12:11.186Z,102007.47
2023-04-05T00:14:40.936Z,102009.69
2023-04-05T00:17:11.957Z,102004.75
2023-04-05T00:19:43.318Z,101992.00
2023-04-05T00:22:13.325Z,101959.25
2023-04-05T00:24:45.793Z,101948.31
2023-04-05T00:27:17.906Z,101968.66
2023-04-05T00:29:47.415Z,102008.50
2023-04-05T00:32:17.209Z,102034.56
2023-04-05T00:34:46.970Z,101983.63
2023-04-05T00:37:16.787Z,101997.72
2023-04-05T00:39:46.616Z,102013.31
2023-04-05T00:42:20.513Z,101974.06
2023-04-05T00:44:50.032Z,102005.81
2023-04-05T00:47:19.591Z,102004.03
2023-04-05T00:49:49.150Z,101939.06
2023-04-05T00:52:19.871Z,101963.28
2023-04-05T00:54:49.454Z,101949.78
2023-04-05T00:57:21.854Z,101947.03
2023-04-05T00:59:52.006Z,101926.69
2023-04-05T01:02:27.149Z,101935.34
2023-04-05T01:05:02.808Z,101881.03
2023-04-05T01:07:37.624Z,101912.97
2023-04-05T01:10:08.471Z,101911.31
2023-04-05T01:12:41.315Z,101930.28
2023-04-05T01:15:12.183Z,101921.13
2023-04-05T01:17:42.404Z,101904.63
2023-04-05T01:20:15.351Z,101887.44
2023-04-05T01:23:23.080Z,101865.06
2023-04-05T01:26:03.802Z,101867.47
2023-04-05T01:28:57.963Z,101829.56
2023-04-05T01:31:35.956Z,101799.69
2023-04-05T01:34:09.949Z,101811.31
2023-04-05T01:36:43.508Z,101792.78
2023-04-05T01:39:16.223Z,101799.34
2023-04-05T01:41:45.845Z,101800.28
2023-04-05T01:44:15.311Z,101832.78
2023-04-05T01:46:47.766Z,101829.25
2023-04-05T01:49:17.625Z,101819.19
2023-04-05T01:51:47.173Z,101790.16
2023-04-05T01:54:16.770Z,101767.41
2023-04-05T01:56:46.426Z,101746.16
2023-04-05T01:59:16.245Z,101746.13
2023-04-05T02:01:51.124Z,101774.13
2023-04-05T02:04:20.968Z,101785.00
2023-04-05T02:06:50.693Z,101801.53
2023-04-05T02:09:20.459Z,101805.34
2023-04-05T02:11:49.995Z,101802.44
2023-04-05T02:14:19.741Z,101803.31
2023-04-05T02:16:53.910Z,101800.38
2023-04-05T02:19:24.401Z,101796.06
2023-04-05T02:21:53.921Z,101792.44
2023-04-05T02:24:23.557Z,101792.66
2023-04-05T02:26:53.079Z,101799.63
2023-04-05T02:29:22.615Z,101805.50
2023-04-05T02:31:56.056Z,101803.78
2023-04-05T02:34:27.392Z,101808.66
2023-04-05T02:36:57.331Z,101810.22
2023-04-05T02:39:26.850Z,101815.47
2023-04-05T02:41:56.848Z,101815.66
2023-04-05T02:44:26.438Z,101804.13
2023-04-05T02:46:58.988Z,101799.38
2023-04-05T02:49:28.493Z,101805.44
2023-04-05T02:51:58.713Z,101792.75
2023-04-05T02:54:28.741Z,101799.69
2023-04-05T02:56:58.298Z,101795.72
2023-04-05T02:59:27.889Z,101805.47
2023-04-05T03:02:02.961Z,101794.44
2023-04-05T03:04:34.665Z,101800.69
2023-04-05T03:07:04.862Z,101797.19
2023-04-05T03:09:38.705Z,101792.41
2023-04-05T03:12:08.590Z,101800.06
2023-04-05T03:14:38.728Z,101792.31
2023-04-05T03:17:10.869Z,101807.06
2023-04-05T03:19:40.422Z,101811.41
2023-04-05T03:22:10.344Z,101811.84
2023-04-05T03:24:42.674Z,101806.34
2023-04-05T03:27:13.334Z,101808.75
2023-04-05T03:29:43.028Z,101813.59
2023-04-05T03:32:15.908Z,101810.81
2023-04-05T03:34:45.402Z,101810.44
2023-04-05T03:37:14.947Z,101822.81
2023-04-05T03:39:44.495Z,101821.31
2023-04-05T03:42:16.143Z,101813.88
2023-04-05T03:44:45.766Z,101811.31
2023-04-05T03:47:17.860Z,101807.06
2023-04-05T03:49:47.550Z,101794.81
2023-04-05T03:52:17.020Z,101807.28
2023-04-05T03:54:46.526Z,101806.78
2023-04-05T03:57:16.360Z,101815.19
2023-04-05T03:59:45.957Z,101812.00
2023-04-05T04:02:18.518Z,101812.19
2023-04-05T04:04:48.075Z,101810.75
2023-04-05T04:07:17.866Z,101791.88
2023-04-05T04:09:47.373Z,101823.28
2023-04-05T04:12:16.854Z,101823.28
2023-04-05T04:14:46.404Z,101822.72
2023-04-05T04:17:29.323Z,101808.19
2023-04-05T04:19:59.676Z,101816.34
2023-04-05T04:22:33.315Z,101800.88
2023-04-05T04:25:04.990Z,101812.91
2023-04-05T04:27:36.658Z,101813.94
2023-04-05T04:30:08.263Z,101797.19
2023-04-05T04:33:00.041Z,101808.91
2023-04-05T04:35:31.078Z,101808.88
2023-04-05T04:38:01.661Z,101782.94
2023-04-05T04:40:32.646Z,101783.50
2023-04-05T04:43:02.798Z,101809.50
2023-04-05T04:45:35.012Z,101783.66
2023-04-05T04:48:08.283Z,101755.50
2023-04-05T04:50:39.334Z,101755.34
2023-04-05T04:53:08.916Z,101743.56
2023-04-05T04:55:38.662Z,101728.72
2023-04-05T04:58:10.281Z,101742.59
2023-04-05T05:00:42.091Z,101747.47
2023-04-05T05:03:14.701Z,101766.00
2023-04-05T05:05:47.823Z,101752.81
2023-04-05T05:08:20.563Z,101760.06
2023-04-05T05:10:53.870Z,101760.63
2023-04-05T05:13:23.592Z,101763.44
2023-04-05T05:15:53.303Z,101761.59
2023-04-05T05:18:25.353Z,101766.66
2023-04-05T05:20:55.132Z,101767.78
2023-04-05T05:23:24.937Z,101766.41
2023-04-05T05:26:00.934Z,101774.13
2023-04-05T05:28:30.577Z,101774.72
2023-04-05T05:31:00.163Z,101778.00
2023-04-05T05:33:32.354Z,101777.66
2023-04-05T05:36:01.997Z,101765.72
2023-04-05T05:38:31.868Z,101768.09
2023-04-05T05:41:01.868Z,101774.59
2023-04-05T05:43:31.511Z,101767.28
2023-04-05T05:46:03.627Z,101758.44
2023-04-05T05:48:36.473Z,101748.09
2023-04-05T05:51:09.903Z,101743.25
2023-04-05T05:53:40.111Z,101744.50
2023-04-05T05:56:10.030Z,101754.41
2023-04-05T05:58:39.653Z,101762.22
2023-04-05T06:01:12.251Z,101748.19
2023-04-05T06:03:44.485Z,101739.19
2023-04-05T06:06:14.326Z,101738.00
2023-04-05T06:08:43.825Z,101753.59
2023-04-05T06:11:21.794Z,101752.13
2023-04-05T06:13:52.611Z,101744.94
2023-04-05T06:16:22.320Z,101742.28
2023-04-05T06:18:55.836Z,101737.19
2023-04-05T06:21:26.552Z,101738.25
2023-04-05T06:23:56.907Z,101750.31
2023-04-05T06:26:28.676Z,101758.25
2023-04-05T06:28:58.498Z,101756.00
2023-04-05T06:31:34.880Z,101753.44
2023-04-05T06:34:07.008Z,101762.41
2023-04-05T06:36:37.132Z,101765.22
2023-04-05T06:39:07.350Z,101780.47
2023-04-05T06:41:36.889Z,101788.06
2023-04-05T06:44:06.462Z,101802.88
2023-04-05T06:46:35.999Z,101771.84
2023-04-05T06:49:08.283Z,101771.38
2023-04-05T06:51:37.839Z,101777.81
2023-04-05T06:54:07.473Z,101784.78
2023-04-05T06:56:36.966Z,101792.53
2023-04-05T06:59:06.502Z,101792.38
2023-04-05T07:01:36.076Z,101788.28
2023-04-05T07:04:08.445Z,101799.16
2023-04-05T07:06:39.227Z,101813.09
2023-04-05T07:09:08.828Z,101836.16
2023-04-05T07:11:40.074Z,101847.78
2023-04-05T07:14:09.593Z,101836.16
2023-04-05T07:16:39.301Z,101844.44
2023-04-05T07:19:12.031Z,101867.78
2023-04-05T07:21:41.502Z,101895.56
2023-04-05T07:24:11.620Z,101917.91
2023-04-05T07:26:41.101Z,101936.25
2023-04-05T07:29:11.164Z,101947.94
2023-04-05T07:31:41.712Z,101971.47
2023-04-05T07:34:13.857Z,101983.00
2023-04-05T07:36:43.401Z,101995.66
2023-04-05T07:39:12.980Z,101987.09
2023-04-05T07:41:43.257Z,102005.44
2023-04-05T07:44:13.408Z,102015.44
2023-04-05T07:46:46.826Z,102021.31
2023-04-05T07:49:20.590Z,102035.63
2023-04-05T07:51:51.169Z,102035.31
2023-04-05T07:54:20.649Z,102027.41
2023-04-05T07:56:50.159Z,102036.63
2023-04-05T07:59:19.724Z,102041.84
2023-04-05T08:01:52.870Z,102049.78
2023-04-05T08:04:27.907Z,102054.94
2023-04-05T08:06:57.611Z,102044.50
2023-04-05T08:09:27.375Z,102038.00
2023-04-05T08:11:57.459Z,102053.34
2023-04-05T08:14:26.966Z,102044.91
2023-04-05T08:16:56.754Z,102035.56
2023-04-05T08:19:28.881Z,102023.22
2023-04-05T08:21:58.384Z,102032.69
2023-04-05T08:24:27.958Z,102042.78
2023-04-05T08:26:57.538Z,102042.78
2023-04-05T08:29:27.222Z,102043.56
2023-04-05T08:32:00.937Z,102040.00
2023-04-05T08:34:33.107Z,102036.50
2023-04-05T08:37:02.969Z,102036.72
2023-04-05T08:39:34.340Z,102063.63
2023-04-05T08:42:11.846Z,102076.56
2023-04-05T08:44:43.065Z,102081.28
2023-04-05T08:47:15.463Z,102071.00
2023-04-05T08:49:49.084Z,102084.72
2023-04-05T08:52:18.637Z,102075.06
2023-04-05T08:54:50.319Z,102080.41
2023-04-05T08:57:21.380Z,102082.34
2023-04-05T08:59:50.940Z,102077.47
2023-04-05T09:02:22.387Z,102070.44
2023-04-05T09:04:56.826Z,102068.63
2023-04-05T09:07:26.504Z,102054.84
2023-04-05T09:09:57.245Z,102056.22
2023-04-05T09:12:28.233Z,102021.31
2023-04-05T09:14:57.810Z,102027.75
2023-04-05T09:17:27.355Z,102059.28
2023-04-05T09:19:59.491Z,102054.53
2023-04-05T09:22:29.097Z,102021.97
2023-04-05T09:24:58.986Z,102026.75
2023-04-05T09:27:28.553Z,102057.06
2023-04-05T09:29:58.031Z,102062.06
2023-04-05T09:32:29.676Z,102060.44
2023-04-05T09:35:04.523Z,102049.63
2023-04-05T09:37:34.344Z,102044.91
2023-04-05T09:40:07.111Z,102043.59
2023-04-05T09:42:46.749Z,102041.94
2023-04-05T09:45:16.598Z,102043.50
2023-04-05T09:47:50.104Z,102049.28
2023-04-05T09:50:25.393Z,102048.78
2023-04-05T09:53:08.666Z,102043.03
2023-04-05T09:55:38.509Z,102033.25
2023-04-05T09:58:08.125Z,102049.72
2023-04-05T10:00:40.102Z,102039.84
2023-04-05T10:03:09.941Z,102028.16
2023-04-05T10:05:42.297Z,102034.91
2023-04-05T10:08:11.821Z,102047.06
2023-04-05T10:10:49.698Z,102052.81
2023-04-05T10:13:20.647Z,102060.28
2023-04-05T10:15:51.428Z,102064.59
2023-04-05T10:18:24.370Z,102068.44
2023-04-05T10:20:57.166Z,102055.63
2023-04-05T10:23:31.690Z,102056.59
2023-04-05T10:26:11.221Z,102046.03
2023-04-05T10:28:43.418Z,102048.69
2023-04-05T10:31:23.968Z,102036.09
2023-04-05T10:34:08.752Z,102036.88
2023-04-05T10:36:48.682Z,102034.69
2023-04-05T10:39:21.252Z,102026.97
2023-04-05T10:41:51.830Z,102025.13
2023-04-05T10:44:26.468Z,102023.41
2023-04-05T10:46:58.466Z,102019.53
2023-04-05T10:49:35.972Z,102007.69
2023-04-05T10:52:09.379Z,102012.78
2023-04-05T10:54:39.390Z,102009.44
2023-04-05T10:57:10.908Z,102009.94
2023-04-05T10:59:44.697Z,102008.66
2023-04-05T11:02:14.901Z,102019.16
2023-04-05T11:04:44.620Z,102010.88
2023-04-05T11:07:18.468Z,102021.31
2023-04-05T11:09:56.634Z,102019.94
2023-04-05T11:12:56.289Z,102025.88
2023-04-05T11:15:32.856Z,102018.84
2023-04-05T11:18:10.047Z,102020.97
2023-04-05T11:20:47.585Z,102010.94
2023-04-05T11:23:21.743Z,102013.81
2023-04-05T11:25:54.408Z,102002.09
2023-04-05T11:28:28.416Z,102003.78
2023-04-05T11:30:59.456Z,101993.25
2023-04-05T11:33:42.796Z,101994.38
2023-04-05T11:36:13.250Z,101994.84
2023-04-05T11:38:46.695Z,101991.28
2023-04-05T11:41:18.150Z,101988.38
2023-04-05T11:43:48.015Z,101987.22
2023-04-05T11:46:19.215Z,101991.81
2023-04-05T11:48:52.398Z,101995.63
2023-04-05T11:51:23.954Z,101988.78
2023-04-05T11:53:56.097Z,101987.91
2023-04-05T11:56:25.790Z,101968.91
2023-04-05T11:58:55.343Z,101961.78
2023-04-05T12:01:24.833Z,101957.53
2023-04-05T12:03:57.497Z,101962.13
2023-04-05T12:06:28.688Z,101964.00
2023-04-05T12:09:00.783Z,101948.59
2023-04-05T12:11:32.051Z,101947.25
2023-04-05T12:14:02.986Z,101936.38
2023-04-05T12:16:32.508Z,101935.09
2023-04-05T12:19:02.968Z,101958.00
2023-04-05T12:21:32.729Z,101961.88
2023-04-05T12:24:04.879Z,101953.25
2023-04-05T12:26:34.832Z,101964.78
2023-04-05T12:29:07.244Z,101984.81
2023-04-05T12:31:41.510Z,101981.47
2023-04-05T12:34:11.955Z,101975.50
2023-04-05T12:36:42.046Z,101963.91
2023-04-05T12:39:14.384Z,101965.50
2023-04-05T12:41:44.624Z,101960.56
2023-04-05T12:44:15.080Z,101960.41
2023-04-05T12:46:45.824Z,101958.97
2023-04-05T12:49:16.228Z,101950.94
2023-04-05T12:51:46.708Z,101949.97
2023-04-05T12:54:26.570Z,101963.00
2023-04-05T12:56:56.677Z,101970.13
2023-04-05T12:59:26.706Z,101970.91
2023-04-05T13:01:56.211Z,101963.06
2023-04-05T13:04:25.710Z,101958.03
2023-04-05T13:06:55.865Z,101965.06
2023-04-05T13:09:28.456Z,101967.31
2023-04-05T13:11:58.587Z,101955.28
2023-04-05T13:14:28.212Z,101943.66
2023-04-05T13:16:57.736Z,101942.66
2023-04-05T13:19:27.484Z,101936.13
2023-04-05T13:21:57.015Z,101938.22
2023-04-05T13:24:29.361Z,101926.59
2023-04-05T13:26:58.920Z,101916.44
2023-04-05T13:29:28.425Z,101907.84
2023-04-05T13:31:58.022Z,101906.53
2023-04-05T13:34:27.823Z,101887.09
2023-04-05T13:36:57.307Z,101896.63
2023-04-05T13:39:29.409Z,101892.91
2023-04-05T13:41:59.649Z,101897.31
2023-04-05T13:44:29.164Z,101897.44
2023-04-05T13:46:58.691Z,101900.81
2023-04-05T13:49:28.241Z,101908.28
2023-04-05T13:51:57.777Z,101914.53
2023-04-05T13:54:29.857Z,101899.66
2023-04-05T13:56:59.886Z,101897.97
2023-04-05T13:59:29.613Z,101897.38
2023-04-05T14:01:59.297Z,101908.69
2023-04-05T14:04:28.936Z,101896.53
2023-04-05T14:06:58.441Z,101892.75
2023-04-05T14:09:30.548Z,101880.84
2023-04-05T14:12:04.461Z,101884.84
2023-04-05T14:14:34.127Z,101887.69
2023-04-05T14:17:03.840Z,101880.34
2023-04-05T14:19:33.460Z,101898.22
2023-04-05T14:22:03.138Z,101897.50
2023-04-05T14:24:35.498Z,101899.41
2023-04-05T14:27:05.115Z,101894.44
2023-04-05T14:29:34.764Z,101885.38
2023-04-05T14:32:04.635Z,101885.38
2023-04-05T14:34:34.487Z,101876.31
2023-04-05T14:37:04.286Z,101872.25
2023-04-05T14:39:36.486Z,101863.09
2023-04-05T14:42:06.363Z,101869.25
2023-04-05T14:44:35.968Z,101856.38
2023-04-05T14:47:05.860Z,101875.56
2023-04-05T14:49:35.543Z,101875.09
2023-04-05T14:52:05.269Z,101867.34
2023-04-05T14:54:37.540Z,101866.81
2023-04-05T14:57:07.234Z,101860.50
2023-04-05T14:59:36.926Z,101878.38
2023-04-05T15:02:06.803Z,101885.16
2023-04-05T15:04:36.868Z,101887.38
2023-04-05T15:07:06.612Z,101887.75
2023-04-05T15:09:38.931Z,101892.47
2023-04-05T15:12:09.598Z,101902.59
2023-04-05T15:14:39.205Z,101905.22
2023-04-05T15:17:08.940Z,101897.13
2023-04-05T15:19:38.828Z,101889.91
2023-04-05T15:22:08.883Z,101882.19
2023-04-05T15:24:43.216Z,101883.59
2023-04-05T15:27:13.068Z,101879.84
2023-04-05T15:29:42.729Z,101868.91
2023-04-05T15:32:12.403Z,101870.75
2023-04-05T15:34:42.564Z,101866.31
2023-04-05T15:37:15.609Z,101865.47
2023-04-05T15:39:47.837Z,101852.16
2023-04-05T15:42:18.796Z,101845.75
2023-04-05T15:44:48.525Z,101840.56
2023-04-05T15:47:18.137Z,101836.00
2023-04-05T15:49:48.736Z,101828.75
2023-04-05T15:52:18.407Z,101825.72
2023-04-05T15:54:50.753Z,101813.75
2023-04-05T15:57:20.498Z,101814.22
2023-04-05T15:59:50.277Z,101794.22
2023-04-05T16:02:22.560Z,101788.81
2023-04-05T16:04:52.233Z,101770.41
2023-04-05T16:07:22.099Z,101772.47
2023-04-05T16:09:54.292Z,101774.97
2023-04-05T16:12:24.179Z,101778.59
2023-04-05T16:14:54.055Z,101761.84
2023-04-05T16:17:25.669Z,101771.34
2023-04-05T16:19:57.185Z,101757.13
2023-04-05T16:22:27.241Z,101766.47
2023-04-05T16:24:59.500Z,101771.91
2023-04-05T16:27:29.208Z,101769.59
2023-04-05T16:29:58.824Z,101761.84
2023-04-05T16:32:29.067Z,101754.47
2023-04-05T16:34:58.968Z,101738.25
2023-04-05T16:37:28.659Z,101727.88
2023-04-05T16:40:00.905Z,101726.91
2023-04-05T16:42:30.588Z,101700.56
2023-04-05T16:45:00.232Z,101700.63
2023-04-05T16:47:30.119Z,101675.53
2023-04-05T16:49:59.882Z,101690.34
2023-04-05T16:52:29.598Z,101703.19
2023-04-05T16:55:01.854Z,101687.28
2023-04-05T16:57:31.642Z,101735.06
2023-04-05T17:00:01.334Z,101752.50
2023-04-05T17:02:31.483Z,101761.97
2023-04-05T17:05:01.238Z,101760.69
2023-04-05T17:07:31.322Z,101757.19
2023-04-05T17:10:04.550Z,101757.00
2023-04-05T17:12:37.343Z,101746.75
2023-04-05T17:15:07.434Z,101751.31
2023-04-05T17:17:37.094Z,101746.50
2023-04-05T17:20:07.664Z,101744.63
2023-04-05T17:22:37.506Z,101744.22
2023-04-05T17:25:10.928Z,101750.34
2023-04-05T17:27:40.583Z,101746.78
2023-04-05T17:30:11.952Z,101761.94
2023-04-05T17:32:41.706Z,101740.50
2023-04-05T17:35:12.397Z,101732.25
2023-04-05T17:37:42.055Z,101732.25
2023-04-05T17:40:16.408Z,101735.38
2023-04-05T17:42:46.354Z,101742.50
2023-04-05T17:45:16.354Z,101749.97
2023-04-05T17:47:46.371Z,101739.72
2023-04-05T17:50:16.312Z,101749.97
2023-04-05T17:52:46.299Z,101760.84
2023-04-05T17:55:18.817Z,101768.44
2023-04-05T17:57:48.543Z,101771.56
2023-04-05T18:00:19.300Z,101767.75
2023-04-05T18:02:51.999Z,101761.09
2023-04-05T18:05:21.909Z,101765.53
2023-04-05T18:07:51.540Z,101755.50
2023-04-05T18:10:23.941Z,101756.59
2023-04-05T18:12:53.967Z,101756.47
2023-04-05T18:15:23.626Z,101753.44
2023-04-05T18:17:53.284Z,101758.03
2023-04-05T18:20:22.957Z,101751.78
2023-04-05T18:22:52.652Z,101746.09
2023-04-05T18:25:24.875Z,101706.44
2023-04-05T18:27:55.188Z,101730.69
2023-04-05T18:30:25.005Z,101726.09
2023-04-05T18:32:54.669Z,101733.34
2023-04-05T18:35:24.914Z,101734.00
2023-04-05T18:37:57.344Z,101729.63
2023-04-05T18:40:29.652Z,101728.75
2023-04-05T18:42:59.415Z,101729.50
2023-04-05T18:45:29.160Z,101711.50
2023-04-05T18:48:00.423Z,101718.19
2023-04-05T18:50:30.230Z,101707.53
2023-04-05T18:53:00.115Z,101691.00
2023-04-05T18:55:32.392Z,101695.47
2023-04-05T18:58:02.885Z,101693.38
2023-04-05T19:00:32.485Z,101697.25
2023-04-05T19:03:02.842Z,101688.66
2023-04-05T19:05:32.772Z,101689.75
2023-04-05T19:08:02.359Z,101693.34
2023-04-05T19:10:34.633Z,101689.50
2023-04-05T19:13:04.296Z,101692.75
2023-04-05T19:15:34.111Z,101690.63
2023-04-05T19:18:04.275Z,101677.63
2023-04-05T19:20:34.121Z,101672.03
2023-04-05T19:23:03.760Z,101662.56
2023-04-05T19:25:36.907Z,101670.97
2023-04-05T19:28:07.626Z,101649.31
2023-04-05T19:30:37.296Z,101663.00
2023-04-05T19:33:06.989Z,101661.75
2023-04-05T19:35:36.784Z,101659.47
2023-04-05T19:38:06.854Z,101656.91
2023-04-05T19:40:39.981Z,101658.50
2023-04-05T19:43:09.660Z,101637.22
2023-04-05T19:45:39.473Z,101639.34
2023-04-05T19:48:37.516Z,101645.03
2023-04-05T19:51:18.015Z,101615.63
2023-04-05T19:53:50.911Z,101624.34
2023-04-05T19:56:29.901Z,101634.03
2023-04-05T19:59:02.337Z,101631.47
2023-04-05T20:01:39.914Z,101628.53
2023-04-05T20:04:14.483Z,101625.22
2023-04-05T20:06:45.102Z,101629.97
2023-04-05T20:09:18.240Z,101640.69
2023-04-05T20:11:52.966Z,101634.88
2023-04-05T20:14:27.195Z,101637.50
2023-04-05T20:16:58.114Z,101627.47
2023-04-05T20:19:31.231Z,101612.50
2023-04-05T20:22:01.682Z,101598.81
2023-04-05T20:24:31.604Z,101604.84
2023-04-05T20:27:04.174Z,101600.09
2023-04-05T20:29:36.276Z,101578.16
2023-04-05T20:32:06.134Z,101562.75
2023-04-05T20:34:38.191Z,101567.22
2023-04-05T20:37:11.420Z,101563.69
2023-04-05T20:39:41.270Z,101576.19
2023-04-05T20:42:13.648Z,101578.00
2023-04-05T20:44:44.043Z,101582.81
2023-04-05T20:47:13.718Z,101565.59
2023-04-05T20:49:43.364Z,101584.09
2023-04-05T20:52:13.942Z,101584.38
2023-04-05T20:54:44.294Z,101579.50
2023-04-05T20:57:16.614Z,101589.97
2023-04-05T20:59:46.407Z,101576.84
2023-04-05T21:02:16.255Z,101584.38
2023-04-05T21:04:46.402Z,101583.38
2023-04-05T21:07:17.702Z,101583.88
2023-04-05T21:09:47.578Z,101576.72
2023-04-05T21:12:20.121Z,101564.34
2023-04-05T21:14:49.807Z,101556.81
2023-04-05T21:17:19.491Z,101551.94
2023-04-05T21:19:49.832Z,101551.22
2023-04-05T21:22:19.526Z,101547.13
2023-04-05T21:24:49.458Z,101544.69
2023-04-05T21:27:21.744Z,101544.31
2023-04-05T21:29:51.361Z,101542.91
2023-04-05T21:32:21.268Z,101536.53
2023-04-05T21:34:50.966Z,101531.03
2023-04-05T21:37:20.611Z,101532.56
2023-04-05T21:39:50.311Z,101521.31
2023-04-05T21:42:22.808Z,101512.53
2023-04-05T21:44:52.468Z,101501.22
2023-04-05T21:47:25.178Z,101493.66
2023-04-05T21:49:55.260Z,101498.13
2023-04-05T21:52:24.956Z,101510.09
2023-04-05T21:54:54.611Z,101508.06
2023-04-05T21:57:27.241Z,101488.94
2023-04-05T21:59:57.009Z,101428.75
2023-04-05T22:02:27.557Z,101389.41
2023-04-05T22:04:57.226Z,101387.72
2023-04-05T22:07:26.963Z,101394.09
2023-04-05T22:09:56.645Z,101404.31
2023-04-05T22:12:28.918Z,101387.47
2023-04-05T22:14:58.612Z,101383.78
2023-04-05T22:17:28.376Z,101385.06
2023-04-05T22:19:58.091Z,101381.22
2023-04-05T22:22:27.834Z,101365.69
2023-04-05T22:24:57.477Z,101364.03
2023-04-05T22:27:30.513Z,101366.56
2023-04-05T22:30:01.643Z,101356.09
2023-04-05T22:32:33.500Z,101353.84
2023-04-05T22:35:04.595Z,101354.47
2023-04-05T22:37:36.785Z,101352.78
2023-04-05T22:40:07.345Z,101354.56
2023-04-05T22:42:42.179Z,101347.22
2023-04-05T22:45:12.915Z,101350.59
2023-04-05T22:47:42.604Z,101358.91
2023-04-05T22:50:13.401Z,101351.25
2023-04-05T22:52:43.194Z,101340.81
2023-04-05T22:55:13.147Z,101324.88
2023-04-05T22:57:45.466Z,101334.44
2023-04-05T23:00:16.501Z,101332.38
2023-04-05T23:02:46.301Z,101323.44
2023-04-05T23:05:16.149Z,101314.66
2023-04-05T23:07:45.807Z,101320.13
2023-04-05T23:10:15.670Z,101299.41
2023-04-05T23:12:48.727Z,101303.25
2023-04-05T23:15:18.401Z,101305.66
2023-04-05T23:17:49.376Z,101310.88
2023-04-05T23:20:19.091Z,101306.16
2023-04-05T23:22:48.774Z,101300.03
2023-04-05T23:25:18.613Z,101301.81
2023-04-05T23:27:50.854Z,101305.38
2023-04-05T23:30:20.659Z,101300.03
2023-04-05T23:32:50.521Z,101299.25
2023-04-05T23:35:22.404Z,101294.69
2023-04-05T23:37:52.217Z,101287.56
2023-04-05T23:40:21.952Z,101291.72
2023-04-05T23:42:54.232Z,101288.66
2023-04-05T23:45:24.878Z,101280.28
2023-04-05T23:47:55.679Z,101286.00
2023-04-05T23:50:25.510Z,101277.84
2023-04-05T23:52:55.257Z,101272.59
2023-04-05T23:55:25.528Z,101262.81
2023-04-05T23:57:59.963Z,101256.16
